LBBG

Burgas Airport

Burgas, Bulgaria
TAF LBBG 162300Z 1700/1724 23008KT CAVOK BECMG 1704/1706 30012KT PROB40 TEMPO 1714/1719 TSRA FEW030CB BKN050
Issued Valid From Valid To
Jul-16 @ 23:00 UTC
(an hour ago)
Jul-17 @ 00:00 UTC
(25 minutes ago)
Jul-18 @ 00:00 UTC
(in 24 hours)
Jul-17 @ 00:00 to Jul-17 @ 04:00
TAF LBBG 162300Z 1700/1724 23008KT CAVOK
Wind Visibility Clouds Conditions
230° at 8 knots 10,000+ meters
  • No significant clouds
Becoming Jul-17 @ 04:00 to Jul-18 @ 00:00
BECMG 1704/1706 30012KT
Wind Visibility Clouds Conditions
300° at 12 knots 10,000+ meters
  • No significant clouds
Temporary  (Probability 40%) Jul-17 @ 14:00 to Jul-17 @ 19:00
PROB40 TEMPO 1714/1719 TSRA FEW030CB BKN050
Clouds Conditions
  • Few at 3,000' AGL
  • Broken at 5,000' AGL
  • Thunderstorm
  • Rain
TAF LBBG 162300Z 1700/1724 23008KT CAVOK BECMG 1704/1706 30012KT PROB40 TEMPO 1714/1719 TSRA FEW030CB BKN050
Issued Jul-16 @ 23:00 UTC
(an hour ago)
Valid From Jul-17 @ 00:00 UTC
(25 minutes ago)
Valid To Jul-18 @ 00:00 UTC
(in 24 hours)
Jul-17 @ 00:00 - Jul-17 @ 04:00
Wind Visibility
230° at 8 knots 10,000+ meters
Clouds
  • No significant clouds
Conditions
Becoming Jul-17 @ 04:00 - Jul-18 @ 00:00
Wind Visibility
300° at 12 knots 10,000+ meters
Clouds
  • No significant clouds
Conditions
Probability 40% Temporary Jul-17 @ 14:00 - Jul-17 @ 19:00
Clouds
  • Few at 3,000' AGL
  • Broken at 5,000' AGL
Conditions
  • Thunderstorm
  • Rain